EPKK/KRK METAR and TAF weather

Enter ICAO airport designator
Station Type Date Time Source
EPKK METAR 2018/12/12 17:30 UTC NOAA

EPKK 121730Z 02003KT 8000 FEW015 BKN020 01/M01 Q1020 R25/51//95


Station Type Date Time Source
EPKK Decoded METAR 2018/12/12 17:30 UTC NOAA

Krakow, Poland (EPKK) 50-05N 019-48E 237M
Dec 12, 2018 - 12:30 PM EST / 2018.12.12 1730 UTC
Wind: from the NNE (020 degrees) at 3 MPH (3 KT):0
Visibility: 4 mile(s):0
Sky conditions: mostly cloudy
Temperature: 33 F (1 C)
Dew Point: 30 F (-1 C)
Relative Humidity: 86%
Pressure (altimeter): 30.12 in. Hg (1020 hPa)
ob: EPKK 121730Z 02003KT 8000 FEW015 BKN020 01/M01 Q1020 R25/51//95
cycle: 17

Station Type Date Time Source
EPKK TAF 2018/12/12 18:33 UTC NOAA

TAF TAF EPKK 121730Z 1218/1318 04006KT 7000 BKN020
TEMPO 1218/1318 2000 SN BR BKN011 OVC016 PROB40
TEMPO 1220/1318 1200 SN BR BKN006 OVC011


Example: see airport list